Ashland, Montana
Current Conditions -  °F | °C
As of 3:53 PM on Monday 20 Oct 2014 (Local Time) from KMLS Reporting Station
Clear Clear  
Wind Chill: 24°   Ceiling: Unl
Heat Index: 24°   Visibility: 10mi
Dew Point:   Wind: 3mph
Humidity: 23%   Direction: 180°S
Pressure: 29.84"   Gusts: NA
Location:  45.62°N, 106.31°W
Report Text: KMLS 202153Z AUTO 18003KT 10SM CLR 24/02 A2984 RMK AO2 SLP094 T02440022
Loading
Personal Weather Stations






























Interactive Weather Map New forecast layout! Learn more

10-Day Weather Forecast

Advertisements
Track Severe Weather on mobile